Time;durP1;ratioP1;P1;durP2;ratioP2;P2;SDS_P1;SDS_P2;PMS_P1;PMS_P2;Temp;Humidity;BMP_temperature;BMP_pressure;BME280_temperature;BME280_humidity;BME280_pressure;Samples;Min_cycle;Max_cycle;Signal;HPM_P1;HPM_P2
2023/11/05 00:01:39;;;;;;;3.28;0.70;;;5.70;99.90;;;;;;4999904;28;20121;-77
2023/11/05 00:04:05;;;;;;;0.47;0.30;;;5.70;99.90;;;;;;5007095;28;20029;-77
2023/11/05 00:06:34;;;;;;;1.40;0.45;;;5.70;99.90;;;;;;5009611;28;20045;-77
2023/11/05 00:09:00;;;;;;;0.43;0.22;;;5.70;99.90;;;;;;5010033;28;20076;-77
2023/11/05 00:11:26;;;;;;;2.15;0.60;;;5.60;99.90;;;;;;5011323;28;20038;-77
2023/11/05 00:13:51;;;;;;;0.70;0.20;;;5.60;99.90;;;;;;5008760;28;20030;-74
2023/11/05 00:16:17;;;;;;;1.55;0.32;;;5.60;99.90;;;;;;5008155;28;20029;-74
2023/11/05 00:18:43;;;;;;;2.13;0.30;;;5.60;99.90;;;;;;5014186;28;20461;-76
2023/11/05 00:21:08;;;;;;;0.30;0.20;;;5.60;99.90;;;;;;5012951;28;20029;-74
2023/11/05 00:23:34;;;;;;;2.13;0.40;;;5.60;99.90;;;;;;5014648;28;20480;-74
2023/11/05 00:26:00;;;;;;;1.75;0.50;;;5.50;99.90;;;;;;5014314;28;20167;-76
2023/11/05 00:28:26;;;;;;;0.60;0.25;;;5.50;99.90;;;;;;5014208;28;20479;-74
2023/11/05 00:30:52;;;;;;;0.55;0.40;;;5.40;99.90;;;;;;5015461;28;20029;-74
2023/11/05 00:33:18;;;;;;;1.08;0.40;;;5.40;99.90;;;;;;5015316;28;20041;-77
2023/11/05 00:35:46;;;;;;;0.98;0.60;;;5.30;99.90;;;;;;5015685;28;20030;-76
2023/11/05 00:38:12;;;;;;;1.33;0.68;;;5.20;99.90;;;;;;5014801;28;20034;-77
2023/11/05 00:40:38;;;;;;;0.57;0.45;;;5.20;99.90;;;;;;5012501;28;20022;-77
2023/11/05 00:43:07;;;;;;;2.08;0.68;;;5.20;99.90;;;;;;5010215;28;20034;-75
2023/11/05 00:45:33;;;;;;;1.20;0.57;;;5.20;99.90;;;;;;5009445;28;20076;-75
2023/11/05 00:47:59;;;;;;;2.17;0.60;;;5.20;99.90;;;;;;5015178;28;20022;-73
2023/11/05 00:50:25;;;;;;;0.68;0.30;;;5.10;99.90;;;;;;5025460;28;20045;-74
2023/11/05 00:52:51;;;;;;;0.88;0.40;;;4.90;99.90;;;;;;5013902;28;20061;-75
2023/11/05 00:55:17;;;;;;;0.43;0.32;;;4.80;99.90;;;;;;5015118;28;20058;-74
2023/11/05 00:57:43;;;;;;;1.33;0.57;;;4.60;99.90;;;;;;5014451;28;20079;-75
2023/11/05 01:00:12;;;;;;;0.63;0.30;;;4.60;99.90;;;;;;5015197;28;20034;-76
2023/11/05 01:02:38;;;;;;;1.13;0.50;;;4.60;99.90;;;;;;5012315;28;20395;-73
2023/11/05 01:05:05;;;;;;;1.33;0.40;;;4.50;99.90;;;;;;5009078;28;20026;-74
2023/11/05 01:07:31;;;;;;;0.52;0.28;;;4.50;99.90;;;;;;5022385;28;20547;-76
2023/11/05 01:09:56;;;;;;;0.50;0.30;;;4.50;99.90;;;;;;5009138;28;20097;-74
2023/11/05 01:12:22;;;;;;;0.98;0.45;;;4.50;99.90;;;;;;5013158;28;20037;-74
2023/11/05 01:14:48;;;;;;;1.05;0.20;;;4.50;99.90;;;;;;4991417;28;20120;-74
2023/11/05 01:17:14;;;;;;;1.15;0.40;;;4.40;99.90;;;;;;5009700;28;20026;-74
2023/11/05 01:19:40;;;;;;;0.60;0.40;;;4.30;99.90;;;;;;5034233;28;20844;-74
2023/11/05 01:22:06;;;;;;;0.88;0.40;;;4.20;99.90;;;;;;5020278;28;20030;-74
2023/11/05 01:24:32;;;;;;;0.95;0.40;;;4.20;99.90;;;;;;5014296;28;20064;-74
2023/11/05 01:26:58;;;;;;;1.00;0.30;;;4.20;99.90;;;;;;5014733;28;20061;-74
2023/11/05 01:29:24;;;;;;;0.55;0.30;;;4.20;99.90;;;;;;5014719;28;20522;-74
2023/11/05 01:31:49;;;;;;;1.08;0.30;;;4.20;99.90;;;;;;5009757;28;20084;-74
2023/11/05 01:34:16;;;;;;;1.02;0.40;;;4.30;99.90;;;;;;5008346;28;20104;-74
2023/11/05 01:36:42;;;;;;;0.80;0.32;;;4.30;99.90;;;;;;4996874;28;20446;-74
2023/11/05 01:39:08;;;;;;;1.38;0.35;;;4.40;99.90;;;;;;5016882;28;20042;-74
2023/11/05 01:41:33;;;;;;;0.85;0.47;;;4.20;99.90;;;;;;5019440;28;20443;-73
2023/11/05 01:43:59;;;;;;;0.43;0.25;;;4.10;99.90;;;;;;5014013;28;20025;-74
2023/11/05 01:46:26;;;;;;;0.90;0.40;;;4.10;99.90;;;;;;5008697;28;20026;-73
2023/11/05 01:48:53;;;;;;;0.63;0.30;;;4.10;99.90;;;;;;5017019;28;20383;-74
2023/11/05 01:51:19;;;;;;;0.20;0.20;;;4.00;99.90;;;;;;5007558;28;20500;-73
2023/11/05 01:53:50;;;;;;;0.80;0.30;;;4.00;99.90;;;;;;5014289;28;20030;-73
2023/11/05 01:56:19;;;;;;;0.30;0.20;;;4.00;99.90;;;;;;4998153;28;20384;-73
2023/11/05 01:58:47;;;;;;;0.57;0.40;;;4.30;99.90;;;;;;4994108;28;20034;-74
2023/11/05 02:01:14;;;;;;;0.22;0.10;;;4.40;99.90;;;;;;4994332;28;20062;-73
2023/11/05 02:03:40;;;;;;;0.93;0.40;;;4.40;99.90;;;;;;4998122;28;20403;-74
2023/11/05 02:06:06;;;;;;;0.10;0.10;;;4.40;99.90;;;;;;5017955;28;20040;-73
2023/11/05 02:08:32;;;;;;;2.53;0.70;;;4.30;99.90;;;;;;5033650;28;20467;-73
2023/11/05 02:10:58;;;;;;;1.65;0.70;;;4.40;99.90;;;;;;5013480;28;20030;-74
2023/11/05 02:13:23;;;;;;;0.40;0.30;;;4.40;99.90;;;;;;5004658;28;20025;-74
2023/11/05 02:15:49;;;;;;;0.60;0.30;;;4.30;99.90;;;;;;5013875;28;20030;-74
2023/11/05 02:18:15;;;;;;;1.65;0.68;;;4.20;99.90;;;;;;5018779;28;20033;-74
2023/11/05 02:20:41;;;;;;;0.80;0.40;;;4.30;99.90;;;;;;5012427;28;20026;-74
2023/11/05 02:23:08;;;;;;;1.58;0.60;;;4.40;99.90;;;;;;5011108;28;20026;-74
2023/11/05 02:25:34;;;;;;;0.82;0.40;;;4.40;99.90;;;;;;5013165;28;20076;-74
2023/11/05 02:28:02;;;;;;;0.73;0.35;;;4.30;99.90;;;;;;5012276;28;20066;-74
2023/11/05 02:30:27;;;;;;;1.52;0.50;;;4.30;99.90;;;;;;5011680;28;20052;-74
2023/11/05 02:32:54;;;;;;;0.63;0.40;;;4.30;99.90;;;;;;5011728;28;20472;-73
2023/11/05 02:35:20;;;;;;;0.20;0.20;;;4.20;99.90;;;;;;5003891;28;20408;-73
2023/11/05 02:37:45;;;;;;;0.28;0.10;;;4.20;99.90;;;;;;5010265;28;20508;-73
2023/11/05 02:40:11;;;;;;;0.57;0.30;;;4.20;99.90;;;;;;5013378;28;20124;-73
2023/11/05 02:42:37;;;;;;;0.60;0.22;;;4.00;99.90;;;;;;5013568;28;20052;-73
2023/11/05 02:45:04;;;;;;;1.10;0.32;;;4.00;99.90;;;;;;5013426;28;20029;-74
2023/11/05 02:47:29;;;;;;;0.20;0.20;;;4.10;99.90;;;;;;5013017;28;20029;-73
2023/11/05 02:49:55;;;;;;;0.10;0.10;;;4.10;99.90;;;;;;4995401;28;20129;-74
2023/11/05 02:52:22;;;;;;;0.10;0.10;;;4.20;99.90;;;;;;5012411;28;20038;-73
2023/11/05 02:54:48;;;;;;;0.77;0.20;;;4.30;99.90;;;;;;5012892;28;20072;-73
2023/11/05 02:57:16;;;;;;;0.22;0.10;;;4.40;99.90;;;;;;5012761;28;20030;-73
2023/11/05 02:59:42;;;;;;;0.77;0.20;;;4.40;99.90;;;;;;5012407;28;20032;-73
2023/11/05 03:02:08;;;;;;;0.45;0.10;;;4.40;99.90;;;;;;5012538;28;20033;-73
2023/11/05 03:04:33;;;;;;;0.65;0.35;;;4.20;99.90;;;;;;5012491;28;20361;-73
2023/11/05 03:07:01;;;;;;;0.98;0.47;;;4.20;99.90;;;;;;5012949;28;20030;-73
2023/11/05 03:09:27;;;;;;;0.57;0.38;;;4.00;99.90;;;;;;5010653;28;20107;-73
2023/11/05 03:11:53;;;;;;;0.70;0.40;;;4.00;99.90;;;;;;5012486;28;20085;-73
2023/11/05 03:14:19;;;;;;;0.32;0.30;;;4.10;99.90;;;;;;5012268;28;20493;-74
2023/11/05 03:16:45;;;;;;;1.50;0.52;;;4.10;99.90;;;;;;5012423;28;20037;-74
2023/11/05 03:19:11;;;;;;;0.38;0.30;;;4.20;99.90;;;;;;5011599;28;20046;-73
2023/11/05 03:21:37;;;;;;;1.00;0.52;;;4.10;99.90;;;;;;5012395;28;20037;-73
2023/11/05 03:24:03;;;;;;;2.33;0.98;;;4.00;99.90;;;;;;5012430;28;20420;-73
2023/11/05 03:26:29;;;;;;;0.52;0.40;;;3.90;99.90;;;;;;5011301;28;20171;-73
2023/11/05 03:28:54;;;;;;;1.75;1.02;;;3.80;99.90;;;;;;5012325;28;20514;-73
2023/11/05 03:31:21;;;;;;;0.60;0.60;;;3.70;99.90;;;;;;5012606;28;20100;-73
2023/11/05 03:33:48;;;;;;;2.30;1.13;;;3.90;99.90;;;;;;5012731;28;20030;-73
2023/11/05 03:36:14;;;;;;;1.88;0.80;;;3.90;99.90;;;;;;5009065;28;20030;-73
2023/11/05 03:38:40;;;;;;;0.85;0.40;;;4.00;99.90;;;;;;5011895;28;20407;-73
2023/11/05 03:41:07;;;;;;;0.40;0.40;;;3.80;99.90;;;;;;5015155;28;20036;-74
2023/11/05 03:43:34;;;;;;;1.55;0.35;;;3.90;99.90;;;;;;4990699;28;20396;-74
2023/11/05 03:46:02;;;;;;;1.00;0.60;;;4.00;99.90;;;;;;5028647;28;20039;-73
2023/11/05 03:48:27;;;;;;;0.55;0.40;;;4.00;99.90;;;;;;4998569;28;20033;-73
2023/11/05 03:50:53;;;;;;;0.60;0.38;;;4.10;99.90;;;;;;5015174;28;20049;-73
2023/11/05 03:53:19;;;;;;;0.73;0.40;;;4.20;99.90;;;;;;5015290;28;20113;-73
2023/11/05 03:55:44;;;;;;;1.08;0.57;;;4.30;99.90;;;;;;5015078;28;20029;-73
2023/11/05 03:58:10;;;;;;;2.15;1.27;;;4.30;99.90;;;;;;5025279;28;20434;-73
2023/11/05 04:00:36;;;;;;;2.47;0.60;;;4.30;99.90;;;;;;5024522;28;20033;-73
2023/11/05 04:03:01;;;;;;;1.75;0.90;;;4.20;99.90;;;;;;5009885;28;20037;-73
2023/11/05 04:05:28;;;;;;;1.25;0.80;;;4.10;99.90;;;;;;4993910;28;20030;-73
2023/11/05 04:07:55;;;;;;;1.52;0.80;;;4.20;99.90;;;;;;5015216;28;20022;-74
2023/11/05 04:10:21;;;;;;;2.08;0.90;;;4.20;99.90;;;;;;5009672;28;20041;-75
2023/11/05 04:12:46;;;;;;;2.70;1.20;;;4.20;99.90;;;;;;5009169;28;20045;-74
2023/11/05 04:15:12;;;;;;;16.27;13.98;;;4.20;99.90;;;;;;5009535;28;20116;-74
2023/11/05 04:17:38;;;;;;;10.95;9.82;;;4.30;99.90;;;;;;4999207;28;20042;-74
2023/11/05 04:20:04;;;;;;;7.50;5.97;;;4.30;99.90;;;;;;4988693;28;20219;-73
2023/11/05 04:22:30;;;;;;;4.78;3.35;;;4.30;99.90;;;;;;5012084;28;20029;-75
2023/11/05 04:24:56;;;;;;;17.60;12.30;;;4.30;99.90;;;;;;5021316;28;20041;-75
2023/11/05 04:27:22;;;;;;;4.72;2.17;;;4.20;99.90;;;;;;5009665;28;20057;-75
2023/11/05 04:29:48;;;;;;;5.05;2.38;;;4.20;99.90;;;;;;5004384;28;20022;-74
2023/11/05 04:32:14;;;;;;;5.65;3.40;;;4.10;99.90;;;;;;5010451;28;20129;-73
2023/11/05 04:34:40;;;;;;;5.78;2.95;;;4.20;99.90;;;;;;5011654;28;20658;-75
2023/11/05 04:37:06;;;;;;;6.32;3.90;;;4.10;99.90;;;;;;5011560;28;20041;-75
2023/11/05 04:39:32;;;;;;;6.00;2.17;;;4.10;99.90;;;;;;5011579;28;20030;-75
2023/11/05 04:41:58;;;;;;;18.35;13.63;;;4.10;99.90;;;;;;5011470;28;20029;-74
2023/11/05 04:44:24;;;;;;;16.02;9.13;;;4.20;99.90;;;;;;5011867;28;20030;-75
2023/11/05 04:46:50;;;;;;;17.95;11.02;;;4.30;99.90;;;;;;5011445;28;20038;-75
2023/11/05 04:49:16;;;;;;;4.47;2.25;;;4.30;99.90;;;;;;5010280;28;20509;-75
2023/11/05 04:51:44;;;;;;;4.78;2.72;;;4.10;99.90;;;;;;5008878;28;20038;-75
2023/11/05 04:54:10;;;;;;;2.85;1.67;;;4.10;99.90;;;;;;5009071;28;20061;-74
2023/11/05 04:56:36;;;;;;;8.70;6.75;;;4.10;99.90;;;;;;5010093;28;20472;-74
2023/11/05 04:59:02;;;;;;;5.65;4.63;;;4.10;99.90;;;;;;5010962;28;20034;-75
2023/11/05 05:01:27;;;;;;;3.08;1.67;;;4.20;99.90;;;;;;5009061;28;20113;-74
2023/11/05 05:03:53;;;;;;;0.52;0.30;;;4.10;99.90;;;;;;5008645;28;20041;-74
2023/11/05 05:06:19;;;;;;;0.47;0.28;;;4.00;99.90;;;;;;5007117;28;20371;-74
2023/11/05 05:08:46;;;;;;;0.63;0.57;;;4.10;99.90;;;;;;5008962;28;20030;-75
2023/11/05 05:11:12;;;;;;;2.30;1.75;;;4.20;99.90;;;;;;5008558;28;20030;-75
2023/11/05 05:13:38;;;;;;;2.42;1.80;;;4.40;99.90;;;;;;5009556;28;20472;-75
2023/11/05 05:16:08;;;;;;;3.10;2.25;;;4.40;99.90;;;;;;5009419;28;20037;-75
2023/11/05 05:18:34;;;;;;;0.73;0.60;;;4.30;99.90;;;;;;5003218;28;20046;-74
2023/11/05 05:21:00;;;;;;;0.52;0.50;;;4.20;99.90;;;;;;5007421;28;20037;-75
2023/11/05 05:23:26;;;;;;;1.42;0.50;;;4.00;99.90;;;;;;5010167;28;20121;-74
2023/11/05 05:25:51;;;;;;;0.20;0.20;;;4.10;99.90;;;;;;5009692;28;20134;-75
2023/11/05 05:28:17;;;;;;;0.43;0.22;;;4.00;99.90;;;;;;5005991;28;20029;-75
2023/11/05 05:30:43;;;;;;;0.75;0.30;;;4.00;99.90;;;;;;5008429;28;20103;-74
2023/11/05 05:33:08;;;;;;;1.73;0.43;;;4.10;99.90;;;;;;5008412;28;20058;-75
2023/11/05 05:35:35;;;;;;;0.45;0.30;;;4.20;99.90;;;;;;5005463;28;20385;-75
2023/11/05 05:38:01;;;;;;;0.57;0.38;;;4.30;99.90;;;;;;5005693;28;20088;-74
2023/11/05 05:40:27;;;;;;;0.63;0.38;;;4.30;99.90;;;;;;5007705;28;20446;-74
2023/11/05 05:42:53;;;;;;;0.65;0.30;;;4.20;99.90;;;;;;5008843;28;20022;-74
2023/11/05 05:45:19;;;;;;;0.70;0.30;;;4.10;99.90;;;;;;5007209;28;20108;-75
2023/11/05 05:47:44;;;;;;;0.65;0.35;;;4.20;99.90;;;;;;5009096;28;20030;-75
2023/11/05 05:50:11;;;;;;;0.50;0.30;;;4.40;99.90;;;;;;5008985;28;20046;-75
2023/11/05 05:52:36;;;;;;;0.50;0.30;;;4.40;99.90;;;;;;5009146;28;20032;-74
2023/11/05 05:55:08;;;;;;;0.50;0.32;;;4.50;99.90;;;;;;5021350;28;20104;-75
2023/11/05 05:57:35;;;;;;;1.17;0.32;;;4.40;99.90;;;;;;5007788;28;20481;-75
2023/11/05 06:00:05;;;;;;;0.32;0.15;;;4.40;99.90;;;;;;5018439;28;20037;-75
2023/11/05 06:02:31;;;;;;;0.82;0.15;;;4.40;99.90;;;;;;5018848;28;20021;-75
2023/11/05 06:04:56;;;;;;;1.10;0.40;;;4.50;99.90;;;;;;5008279;28;20030;-74
2023/11/05 06:07:22;;;;;;;0.10;0.10;;;4.50;99.90;;;;;;5004164;28;20026;-73
2023/11/05 06:09:48;;;;;;;0.98;0.22;;;4.50;99.90;;;;;;5003862;28;20030;-74
2023/11/05 06:12:14;;;;;;;5.95;1.20;;;4.40;99.90;;;;;;5003960;28;20777;-74
2023/11/05 06:14:40;;;;;;;1.00;0.50;;;4.40;99.90;;;;;;5004501;28;20045;-74
2023/11/05 06:17:05;;;;;;;0.98;0.55;;;4.30;99.90;;;;;;5017418;28;20033;-74
2023/11/05 06:19:31;;;;;;;1.00;0.52;;;4.30;99.90;;;;;;5021598;28;20048;-74
2023/11/05 06:21:56;;;;;;;1.73;1.10;;;4.40;99.90;;;;;;5018910;28;20029;-73
2023/11/05 06:24:22;;;;;;;2.38;1.00;;;4.40;99.90;;;;;;5016911;28;20379;-73
2023/11/05 06:26:48;;;;;;;1.25;0.50;;;4.50;99.90;;;;;;5006116;28;20025;-73
2023/11/05 06:29:14;;;;;;;1.00;0.30;;;4.50;99.90;;;;;;5001220;28;20369;-74
2023/11/05 06:31:40;;;;;;;0.70;0.40;;;4.50;99.90;;;;;;5018826;28;20116;-74
2023/11/05 06:34:06;;;;;;;0.75;0.45;;;4.50;99.90;;;;;;5007105;28;20525;-73
2023/11/05 06:36:31;;;;;;;0.20;0.20;;;4.50;99.90;;;;;;5000837;28;20049;-73
2023/11/05 06:38:57;;;;;;;0.60;0.30;;;4.50;99.90;;;;;;4999767;28;20034;-73
2023/11/05 06:41:23;;;;;;;0.68;0.40;;;4.50;99.90;;;;;;5001600;28;20025;-75
2023/11/05 06:43:49;;;;;;;0.65;0.43;;;4.60;99.90;;;;;;4997704;28;20037;-75
2023/11/05 06:46:14;;;;;;;0.32;0.30;;;4.60;99.90;;;;;;5004734;28;21356;-74
2023/11/05 06:48:41;;;;;;;1.73;0.40;;;4.70;99.90;;;;;;5002539;28;20037;-74
2023/11/05 06:51:07;;;;;;;0.50;0.40;;;4.60;99.90;;;;;;5013802;28;20045;-75
2023/11/05 06:53:34;;;;;;;2.63;1.40;;;4.80;99.90;;;;;;5000437;28;20033;-74
2023/11/05 06:56:00;;;;;;;8.02;4.03;;;4.90;99.90;;;;;;5002178;28;20031;-74
2023/11/05 06:58:25;;;;;;;3.15;1.35;;;5.00;99.90;;;;;;4988095;28;20049;-74
2023/11/05 07:00:51;;;;;;;3.38;1.20;;;4.90;99.90;;;;;;5005540;28;20072;-75
2023/11/05 07:03:22;;;;;;;2.72;1.45;;;5.00;99.90;;;;;;5007011;28;20036;-75
2023/11/05 07:05:49;;;;;;;2.90;2.00;;;5.10;99.90;;;;;;5008891;28;20029;-75
2023/11/05 07:08:14;;;;;;;3.17;0.90;;;5.20;99.90;;;;;;5010115;28;20357;-74
2023/11/05 07:10:40;;;;;;;1.70;0.90;;;5.20;99.90;;;;;;5008765;28;20471;-74
2023/11/05 07:13:05;;;;;;;2.40;1.60;;;5.30;99.90;;;;;;5004547;28;20096;-74
2023/11/05 07:15:32;;;;;;;0.75;0.57;;;5.30;99.90;;;;;;5006263;28;20026;-75
2023/11/05 07:17:58;;;;;;;1.42;0.50;;;5.30;99.90;;;;;;5012771;28;20022;-74
2023/11/05 07:20:23;;;;;;;4.55;2.10;;;5.10;99.90;;;;;;5009344;28;20163;-75
2023/11/05 07:22:49;;;;;;;3.90;2.65;;;5.20;99.90;;;;;;5007896;28;20088;-74
2023/11/05 07:25:15;;;;;;;2.22;1.10;;;5.10;99.90;;;;;;5004817;28;20069;-75
2023/11/05 07:27:41;;;;;;;1.38;1.08;;;5.10;99.90;;;;;;5005200;28;20064;-74
2023/11/05 07:30:10;;;;;;;1.30;0.60;;;5.10;99.90;;;;;;5006524;28;20041;-74
2023/11/05 07:32:35;;;;;;;1.50;0.80;;;5.10;99.90;;;;;;5011683;28;20049;-74
2023/11/05 07:35:01;;;;;;;1.33;0.75;;;5.10;99.90;;;;;;5006989;28;20037;-75
2023/11/05 07:37:30;;;;;;;1.23;0.68;;;5.10;99.90;;;;;;5007701;28;20117;-75
2023/11/05 07:39:55;;;;;;;1.15;0.73;;;5.10;99.90;;;;;;5024779;28;20057;-75
2023/11/05 07:42:21;;;;;;;1.02;0.70;;;5.00;99.90;;;;;;5020283;28;20463;-74
2023/11/05 07:44:47;;;;;;;1.50;0.70;;;4.90;99.90;;;;;;5007394;28;20057;-74
2023/11/05 07:47:12;;;;;;;0.90;0.70;;;4.90;99.90;;;;;;5023326;28;20029;-75
2023/11/05 07:49:38;;;;;;;2.33;1.10;;;4.90;99.90;;;;;;5004935;28;20476;-74
2023/11/05 07:52:04;;;;;;;2.15;1.20;;;4.90;99.90;;;;;;5013701;28;20029;-75
2023/11/05 07:54:30;;;;;;;1.60;0.77;;;5.00;99.90;;;;;;5008461;28;20041;-75
2023/11/05 07:56:56;;;;;;;1.50;0.88;;;5.00;99.90;;;;;;5005183;28;20071;-75
2023/11/05 07:59:22;;;;;;;1.50;1.00;;;5.00;99.90;;;;;;5018224;28;20029;-74
2023/11/05 08:01:48;;;;;;;1.98;0.90;;;4.90;99.90;;;;;;5011212;28;20049;-75
2023/11/05 08:04:15;;;;;;;3.22;1.25;;;5.00;99.90;;;;;;5023733;28;20033;-74
2023/11/05 08:06:41;;;;;;;3.50;1.73;;;5.00;99.90;;;;;;5010013;28;20065;-75
2023/11/05 08:09:06;;;;;;;2.53;1.55;;;4.90;99.90;;;;;;5010775;28;20061;-75
2023/11/05 08:11:32;;;;;;;2.28;1.23;;;4.70;99.90;;;;;;5017401;28;20116;-75
2023/11/05 08:14:00;;;;;;;2.80;1.42;;;4.60;99.90;;;;;;5014041;28;20148;-75
2023/11/05 08:16:26;;;;;;;2.45;0.80;;;4.60;99.90;;;;;;5005465;28;20376;-75
2023/11/05 08:18:51;;;;;;;0.30;0.10;;;4.80;99.90;;;;;;5019179;28;20041;-75
2023/11/05 08:21:20;;;;;;;1.17;0.57;;;4.80;99.90;;;;;;5013683;28;20460;-74
2023/11/05 08:23:46;;;;;;;0.85;0.40;;;4.90;99.90;;;;;;5012430;28;20030;-75
2023/11/05 08:26:12;;;;;;;1.83;0.90;;;4.80;99.90;;;;;;5009346;28;20038;-75
2023/11/05 08:28:38;;;;;;;4.80;2.50;;;4.90;99.90;;;;;;5015151;28;20030;-75
2023/11/05 08:31:06;;;;;;;2.05;0.95;;;5.00;99.90;;;;;;5010489;28;20037;-74
2023/11/05 08:33:32;;;;;;;1.40;0.82;;;4.80;99.90;;;;;;5018470;28;20079;-75
2023/11/05 08:35:58;;;;;;;1.52;0.80;;;4.90;99.90;;;;;;5017609;28;20101;-75
2023/11/05 08:38:24;;;;;;;1.25;0.70;;;4.90;99.90;;;;;;5009989;28;20022;-74
2023/11/05 08:40:49;;;;;;;1.17;0.50;;;5.00;99.90;;;;;;5009020;28;20037;-75
2023/11/05 08:43:15;;;;;;;2.25;0.82;;;4.90;99.90;;;;;;5009338;28;20539;-74
2023/11/05 08:45:41;;;;;;;4.82;1.88;;;4.90;99.90;;;;;;5008423;28;20033;-74
2023/11/05 08:48:07;;;;;;;3.05;1.10;;;5.10;99.90;;;;;;5010175;28;20041;-73
2023/11/05 08:50:32;;;;;;;0.70;0.40;;;5.20;99.90;;;;;;5023011;28;20134;-73
2023/11/05 08:52:58;;;;;;;4.53;1.98;;;5.20;99.90;;;;;;5014137;28;20030;-74
2023/11/05 08:55:28;;;;;;;5.85;2.80;;;5.30;99.90;;;;;;5013239;28;20033;-74
2023/11/05 08:58:00;;;;;;;3.88;1.85;;;5.50;99.90;;;;;;5013340;28;20037;-74
2023/11/05 09:00:26;;;;;;;3.45;1.50;;;5.40;99.90;;;;;;5011916;28;20133;-75
2023/11/05 09:02:52;;;;;;;2.70;1.20;;;5.40;99.90;;;;;;5007895;28;20033;-73
2023/11/05 09:05:22;;;;;;;25.58;17.08;;;5.50;99.90;;;;;;5008682;28;20361;-74
2023/11/05 09:07:50;;;;;;;10.52;6.47;;;5.40;99.90;;;;;;5012931;28;20495;-74
2023/11/05 09:10:16;;;;;;;2.28;1.23;;;5.50;99.90;;;;;;5006177;28;20420;-75
2023/11/05 09:12:41;;;;;;;4.53;1.25;;;5.40;99.90;;;;;;5015136;28;20206;-74
2023/11/05 09:15:07;;;;;;;2.08;0.93;;;5.60;99.90;;;;;;5007680;28;20037;-75
2023/11/05 09:17:33;;;;;;;3.00;0.90;;;5.80;99.90;;;;;;5010079;28;20057;-74
2023/11/05 09:19:59;;;;;;;1.48;0.80;;;6.00;99.90;;;;;;5012972;28;20044;-74
2023/11/05 09:22:24;;;;;;;1.85;0.93;;;5.90;99.90;;;;;;4990034;28;20029;-75
2023/11/05 09:24:50;;;;;;;2.08;0.95;;;5.90;99.90;;;;;;5008374;28;20048;-75
2023/11/05 09:27:16;;;;;;;1.25;0.82;;;5.90;99.90;;;;;;5014688;28;20027;-75
2023/11/05 09:29:41;;;;;;;1.80;0.95;;;5.80;99.90;;;;;;5009954;28;20106;-74
2023/11/05 09:32:08;;;;;;;3.10;0.90;;;5.90;99.90;;;;;;5013954;28;20033;-75
2023/11/05 09:34:35;;;;;;;2.75;0.75;;;7.90;99.90;;;;;;5013963;28;20068;-75
2023/11/05 09:37:02;;;;;;;2.45;1.00;;;8.50;99.90;;;;;;5007539;28;20044;-77
2023/11/05 09:39:27;;;;;;;2.90;0.95;;;7.50;99.90;;;;;;5010306;28;20030;-75
2023/11/05 09:41:53;;;;;;;2.40;1.02;;;7.20;99.90;;;;;;5014686;28;20033;-74
2023/11/05 09:44:22;;;;;;;1.60;0.70;;;7.60;99.90;;;;;;5007474;28;20025;-75
2023/11/05 09:46:50;;;;;;;12.27;9.63;;;7.60;99.90;;;;;;5005666;28;20473;-74
2023/11/05 09:49:16;;;;;;;4.38;2.15;;;7.20;99.90;;;;;;5008402;28;20064;-73
2023/11/05 09:51:47;;;;;;;4.65;3.15;;;6.80;99.90;;;;;;5010329;28;20030;-75
2023/11/05 09:54:13;;;;;;;3.08;1.70;;;6.70;99.90;;;;;;5004971;28;20041;-77
2023/11/05 09:56:40;;;;;;;2.13;1.38;;;6.70;99.90;;;;;;5015374;28;20138;-76
2023/11/05 09:59:06;;;;;;;10.57;9.48;;;6.70;99.90;;;;;;5013899;28;20475;-79
2023/11/05 10:01:35;;;;;;;3.05;1.65;;;6.70;99.90;;;;;;5012896;28;20066;-75
2023/11/05 10:04:06;;;;;;;2.08;0.93;;;6.50;99.90;;;;;;5007695;28;20037;-76
2023/11/05 10:06:33;;;;;;;1.40;0.80;;;6.60;99.90;;;;;;5006679;28;20034;-76
2023/11/05 10:08:59;;;;;;;1.48;0.80;;;6.60;99.90;;;;;;5011452;28;20037;-76
2023/11/05 10:11:26;;;;;;;2.33;0.90;;;6.70;99.90;;;;;;5015274;28;20083;-77
2023/11/05 10:13:52;;;;;;;3.33;1.25;;;6.70;99.90;;;;;;5018067;28;20056;-76
2023/11/05 10:16:19;;;;;;;2.42;1.20;;;6.60;99.90;;;;;;5008457;28;20026;-76
2023/11/05 10:18:45;;;;;;;2.08;0.95;;;6.70;99.90;;;;;;5002882;28;20042;-74
2023/11/05 10:21:11;;;;;;;1.98;0.88;;;6.70;99.90;;;;;;5003382;28;20104;-75
2023/11/05 10:23:52;;;;;;;2.05;1.00;;;6.60;99.90;;;;;;5003716;28;20460;-74
2023/11/05 10:26:31;;;;;;;1.45;0.75;;;6.70;99.90;;;;;;5005438;28;20467;-75
2023/11/05 10:28:57;;;;;;;1.40;0.93;;;6.70;99.90;;;;;;5013568;28;20064;-74
2023/11/05 10:31:24;;;;;;;2.38;1.15;;;6.80;99.90;;;;;;5002591;28;20072;-74
2023/11/05 10:33:51;;;;;;;7.90;4.82;;;6.80;99.90;;;;;;5004021;28;20038;-74
2023/11/05 10:36:18;;;;;;;6.07;3.58;;;7.10;99.90;;;;;;5008360;28;20094;-73
2023/11/05 10:38:44;;;;;;;4.63;2.50;;;7.20;99.90;;;;;;5010196;28;20533;-74
2023/11/05 10:41:11;;;;;;;3.38;1.77;;;7.20;99.90;;;;;;5013626;28;20068;-74
2023/11/05 10:43:39;;;;;;;8.48;5.57;;;7.20;99.90;;;;;;5003301;28;20518;-75
2023/11/05 10:46:06;;;;;;;5.35;3.80;;;7.20;99.90;;;;;;5006971;28;20371;-74
2023/11/05 10:48:33;;;;;;;3.05;1.65;;;7.40;99.90;;;;;;5007945;28;20030;-73
2023/11/05 10:51:00;;;;;;;2.67;1.30;;;7.40;99.90;;;;;;5004382;28;20054;-74
2023/11/05 10:53:27;;;;;;;2.38;1.50;;;7.40;99.90;;;;;;5008635;28;20030;-75
2023/11/05 10:55:53;;;;;;;3.75;1.90;;;7.60;99.90;;;;;;5009193;28;20029;-75
2023/11/05 10:58:22;;;;;;;6.13;3.63;;;7.60;99.90;;;;;;5003705;28;20725;-75
2023/11/05 11:00:57;;;;;;;3.72;2.10;;;7.80;99.90;;;;;;5004174;28;20068;-74
2023/11/05 11:03:25;;;;;;;18.65;10.50;;;8.00;99.90;;;;;;5005056;28;20030;-75
2023/11/05 11:05:55;;;;;;;6.50;4.20;;;8.10;99.90;;;;;;4985558;28;20064;-75
2023/11/05 11:08:27;;;;;;;4.13;1.95;;;8.10;99.90;;;;;;4999354;28;21220;-76
2023/11/05 11:11:07;;;;;;;3.08;1.25;;;8.10;99.90;;;;;;5005109;28;20022;-75
2023/11/05 11:13:34;;;;;;;5.63;2.70;;;8.00;99.90;;;;;;5005094;28;20026;-75
2023/11/05 11:16:01;;;;;;;4.05;1.40;;;8.20;99.90;;;;;;5002635;28;20037;-76
2023/11/05 11:18:30;;;;;;;2.60;1.23;;;8.30;99.90;;;;;;5009256;28;20106;-75
2023/11/05 11:20:57;;;;;;;2.40;1.20;;;8.30;99.90;;;;;;5001766;28;20042;-76
2023/11/05 11:23:24;;;;;;;2.00;0.98;;;8.10;99.90;;;;;;5000187;28;20424;-76
2023/11/05 11:26:04;;;;;;;1.58;1.00;;;8.10;99.90;;;;;;5003346;28;20029;-76
2023/11/05 11:28:33;;;;;;;1.58;0.80;;;8.30;99.90;;;;;;5006980;28;20044;-75
2023/11/05 11:31:01;;;;;;;2.95;1.45;;;8.30;99.90;;;;;;5002071;28;20034;-75
2023/11/05 11:33:27;;;;;;;2.63;1.23;;;8.40;99.90;;;;;;4984971;28;20030;-75
2023/11/05 11:35:54;;;;;;;1.20;0.85;;;8.60;99.90;;;;;;5002602;28;20033;-76
2023/11/05 11:38:19;;;;;;;1.30;0.80;;;8.60;99.90;;;;;;5003207;28;20022;-75
2023/11/05 11:40:58;;;;;;;1.98;0.95;;;8.60;99.90;;;;;;5007475;28;20044;-75
2023/11/05 11:43:27;;;;;;;2.63;1.08;;;8.50;99.90;;;;;;5002529;28;20088;-75
2023/11/05 11:45:53;;;;;;;0.63;0.40;;;8.70;99.90;;;;;;5001200;28;20033;-75
2023/11/05 11:48:25;;;;;;;3.92;2.10;;;8.90;99.90;;;;;;5004338;28;20053;-74
2023/11/05 11:50:51;;;;;;;3.63;2.13;;;8.90;99.90;;;;;;5005682;28;20718;-75
2023/11/05 11:53:29;;;;;;;5.03;3.20;;;8.90;99.90;;;;;;5001155;28;20046;-75
2023/11/05 11:55:56;;;;;;;8.32;7.18;;;9.20;99.90;;;;;;5011296;28;20507;-76
2023/11/05 11:58:24;;;;;;;3.33;2.00;;;9.40;99.90;;;;;;5001822;28;20026;-76
2023/11/05 12:00:52;;;;;;;1.75;0.98;;;9.40;99.90;;;;;;5005328;28;20116;-75
2023/11/05 12:03:18;;;;;;;2.55;0.90;;;9.20;99.90;;;;;;5013023;28;20506;-76
2023/11/05 12:05:44;;;;;;;2.97;1.33;;;9.10;99.90;;;;;;5011002;28;20030;-76
2023/11/05 12:08:11;;;;;;;2.10;0.82;;;9.40;99.90;;;;;;5004526;28;20033;-76
2023/11/05 12:10:37;;;;;;;0.85;0.50;;;9.40;99.90;;;;;;5006726;28;20400;-74
2023/11/05 12:13:03;;;;;;;1.65;0.82;;;9.30;99.90;;;;;;5009616;28;20033;-75
2023/11/05 12:15:30;;;;;;;1.65;0.70;;;9.40;99.90;;;;;;5005994;28;20080;-76
2023/11/05 12:17:56;;;;;;;1.83;0.93;;;9.40;99.90;;;;;;5010764;28;20040;-76
2023/11/05 12:20:21;;;;;;;2.97;1.02;;;9.60;99.90;;;;;;5012411;28;20305;-74
2023/11/05 12:22:48;;;;;;;3.22;1.45;;;9.80;99.90;;;;;;5005827;28;20814;-75
2023/11/05 12:25:14;;;;;;;1.75;0.90;;;9.80;99.90;;;;;;5014716;28;20464;-75
2023/11/05 12:27:53;;;;;;;2.25;1.10;;;9.90;99.90;;;;;;5007679;28;20148;-75
2023/11/05 12:30:24;;;;;;;1.80;0.77;;;9.80;99.90;;;;;;5011798;28;20172;-75
2023/11/05 12:32:51;;;;;;;1.90;0.80;;;9.70;99.90;;;;;;5004214;28;20549;-77
2023/11/05 12:35:16;;;;;;;3.22;0.90;;;9.80;99.90;;;;;;5009099;28;20033;-75
2023/11/05 12:37:42;;;;;;;1.83;0.63;;;9.80;99.90;;;;;;5012197;28;20041;-75
2023/11/05 12:40:09;;;;;;;1.38;0.80;;;10.00;99.90;;;;;;5007699;28;20033;-75
2023/11/05 12:42:36;;;;;;;2.13;0.90;;;10.10;99.90;;;;;;5007452;28;20476;-73
2023/11/05 12:45:07;;;;;;;2.03;0.90;;;10.00;99.90;;;;;;5007363;28;20088;-76
2023/11/05 12:47:33;;;;;;;2.95;1.00;;;10.00;99.90;;;;;;5006130;28;20033;-76
2023/11/05 12:49:59;;;;;;;1.77;0.80;;;10.10;99.90;;;;;;5008161;28;20528;-75
2023/11/05 12:52:25;;;;;;;0.52;0.47;;;10.00;99.90;;;;;;5005188;28;20481;-75